Time;durP1;ratioP1;P1;durP2;ratioP2;P2;SDS_P1;SDS_P2;PMS_P1;PMS_P2;Temp;Humidity;BMP_temperature;BMP_pressure;BME280_temperature;BME280_humidity;BME280_pressure;Samples;Min_cycle;Max_cycle;Signal;HPM_P1;HPM_P2
2023/04/05 00:01:49;;;;;;;4.55;2.83;;;1.30;74.70;;;;;;4947461;28;20035;-50
2023/04/05 00:04:19;;;;;;;10.93;2.95;;;1.30;75.50;;;;;;4951356;28;20039;-54
2023/04/05 00:06:49;;;;;;;4.80;2.70;;;1.20;75.40;;;;;;4947622;28;20534;-55
2023/04/05 00:09:17;;;;;;;6.90;2.75;;;1.20;75.40;;;;;;4939618;28;20070;-57
2023/04/05 00:11:43;;;;;;;7.97;3.47;;;1.20;75.50;;;;;;4948529;28;20070;-47
2023/04/05 00:14:08;;;;;;;6.13;2.90;;;1.20;76.80;;;;;;4931539;29;20047;-51
2023/04/05 00:16:35;;;;;;;7.63;3.45;;;1.20;78.50;;;;;;4949060;28;20059;-45
2023/04/05 00:19:00;;;;;;;5.82;2.92;;;1.20;78.70;;;;;;4948032;28;20417;-53
2023/04/05 00:21:26;;;;;;;6.90;3.17;;;1.10;78.90;;;;;;4931862;29;20059;-50
2023/04/05 00:23:55;;;;;;;6.40;3.42;;;1.10;78.70;;;;;;4948156;28;20090;-51
2023/04/05 00:26:20;;;;;;;6.85;2.70;;;1.10;79.30;;;;;;4932529;28;20442;-52
2023/04/05 00:28:47;;;;;;;4.35;2.88;;;1.00;80.30;;;;;;4947920;28;20134;-47
2023/04/05 00:31:13;;;;;;;10.57;3.47;;;1.00;80.00;;;;;;4953412;28;20047;-50
2023/04/05 00:33:39;;;;;;;4.22;3.22;;;1.00;80.80;;;;;;4947939;28;20524;-41
2023/04/05 00:36:18;;;;;;;5.30;3.13;;;1.00;81.60;;;;;;4936776;28;20130;-54
2023/04/05 00:38:45;;;;;;;6.93;2.97;;;0.90;82.20;;;;;;4950039;28;20047;-54
2023/04/05 00:41:12;;;;;;;12.48;3.33;;;0.90;81.60;;;;;;4948567;28;20418;-50
2023/04/05 00:43:38;;;;;;;6.93;3.20;;;0.90;82.40;;;;;;4949127;28;20478;-52
2023/04/05 00:46:05;;;;;;;9.52;3.60;;;0.80;83.60;;;;;;4930503;29;20047;-50
2023/04/05 00:48:32;;;;;;;4.70;2.90;;;0.80;84.00;;;;;;4949426;28;20062;-46
2023/04/05 00:50:58;;;;;;;6.05;2.92;;;0.80;84.30;;;;;;4930970;29;20043;-45
2023/04/05 00:53:26;;;;;;;7.50;3.10;;;0.80;84.10;;;;;;4948868;28;20051;-47
2023/04/05 00:55:52;;;;;;;8.10;3.63;;;0.70;84.60;;;;;;4949328;28;20039;-58
2023/04/05 00:58:21;;;;;;;4.72;2.75;;;0.80;85.80;;;;;;4948665;28;20055;-54
2023/04/05 01:00:55;;;;;;;6.72;2.80;;;0.70;85.60;;;;;;4948699;28;20050;-45
2023/04/05 01:03:24;;;;;;;8.68;3.38;;;0.70;85.20;;;;;;4955248;28;20091;-48
2023/04/05 01:06:53;;;;;;;7.75;3.25;;;0.60;84.70;;;;;;4932777;29;20043;-54
2023/04/05 01:09:33;;;;;;;7.80;4.45;;;0.60;85.90;;;;;;4906036;28;20506;-52
2023/04/05 01:12:00;;;;;;;;;;;0.50;86.60;;;;;;4928912;29;20134;-53
2023/04/05 01:14:26;;;;;;;5.50;3.00;;;0.50;87.00;;;;;;4953473;28;20040;-50
2023/04/05 01:16:57;;;;;;;8.18;3.13;;;0.50;88.00;;;;;;4953529;28;20477;-42
2023/04/05 01:19:27;;;;;;;6.30;3.20;;;0.50;88.20;;;;;;4952548;28;20152;-52
2023/04/05 01:22:36;;;;;;;6.32;3.20;;;0.40;89.00;;;;;;4953851;28;20051;-44
2023/04/05 01:25:35;;;;;;;5.47;3.03;;;0.40;88.90;;;;;;4924272;28;20557;-56
2023/04/05 01:28:29;;;;;;;5.22;3.10;;;0.40;89.70;;;;;;4951524;28;20067;-49
2023/04/05 01:31:01;;;;;;;6.57;3.03;;;0.40;90.10;;;;;;4912721;28;20564;-52
2023/04/05 01:33:36;;;;;;;7.68;2.97;;;0.40;90.50;;;;;;4951672;28;20039;-54
2023/04/05 01:36:18;;;;;;;8.60;3.70;;;0.40;90.70;;;;;;4935374;29;20478;-45
2023/04/05 01:38:47;;;;;;;3.50;2.88;;;0.30;90.80;;;;;;4931349;28;20094;-53
2023/04/05 01:41:13;;;;;;;4.65;3.00;;;0.30;91.20;;;;;;4951627;28;20051;-48
2023/04/05 01:43:39;;;;;;;5.25;3.47;;;0.30;92.70;;;;;;4948505;28;20051;-56
2023/04/05 01:46:06;;;;;;;9.15;3.92;;;0.30;92.40;;;;;;4944895;28;20172;-53
2023/04/05 01:48:32;;;;;;;3.92;3.40;;;0.20;92.00;;;;;;4950576;28;20044;-45
2023/04/05 01:50:59;;;;;;;5.53;3.53;;;0.20;92.20;;;;;;4946316;28;20058;-52
2023/04/05 01:53:25;;;;;;;8.82;3.25;;;0.20;94.00;;;;;;4934940;29;20086;-54
2023/04/05 01:55:50;;;;;;;8.68;3.45;;;0.20;94.60;;;;;;4947224;28;20764;-49
2023/04/05 01:58:16;;;;;;;5.75;3.83;;;0.20;95.10;;;;;;4934410;28;20490;-47
2023/04/05 02:00:42;;;;;;;6.15;3.67;;;0.30;95.90;;;;;;4949914;28;20048;-44
2023/04/05 02:03:09;;;;;;;9.15;3.88;;;0.40;97.80;;;;;;4950823;28;20047;-47
2023/04/05 02:05:34;;;;;;;11.48;4.05;;;0.50;98.80;;;;;;4935007;29;20106;-55
2023/04/05 02:08:00;;;;;;;7.82;4.22;;;0.60;98.70;;;;;;4933573;29;20098;-60
2023/04/05 02:10:26;;;;;;;8.77;4.03;;;0.60;98.10;;;;;;4932324;29;20043;-48
2023/04/05 02:12:51;;;;;;;9.18;4.20;;;0.60;97.90;;;;;;4950190;28;20070;-42
2023/04/05 02:15:17;;;;;;;14.82;4.03;;;0.60;97.80;;;;;;4951696;28;20043;-48
2023/04/05 02:17:44;;;;;;;5.30;3.67;;;0.70;98.10;;;;;;4950819;28;20039;-51
2023/04/05 02:20:13;;;;;;;6.32;4.32;;;0.70;97.70;;;;;;4951573;28;20494;-56
2023/04/05 02:22:39;;;;;;;7.50;4.20;;;0.80;97.70;;;;;;4953203;28;20387;-43
2023/04/05 02:25:09;;;;;;;7.88;4.30;;;0.90;98.00;;;;;;4951770;28;20097;-49
2023/04/05 02:27:35;;;;;;;6.85;3.67;;;0.90;97.00;;;;;;4953405;28;20047;-43
2023/04/05 02:30:01;;;;;;;8.95;4.40;;;0.90;96.50;;;;;;4934960;29;20055;-43
2023/04/05 02:32:27;;;;;;;9.40;4.40;;;0.90;96.90;;;;;;4952792;28;20140;-43
2023/04/05 02:34:53;;;;;;;8.63;4.85;;;0.80;96.40;;;;;;4933137;29;20043;-47
2023/04/05 02:37:19;;;;;;;9.45;4.30;;;0.90;95.60;;;;;;4950431;28;20066;-56
2023/04/05 02:39:45;;;;;;;10.00;4.38;;;0.90;95.40;;;;;;4933182;28;20058;-47
2023/04/05 02:42:11;;;;;;;10.68;5.38;;;0.80;94.70;;;;;;4950263;28;20328;-45
2023/04/05 02:44:36;;;;;;;8.32;5.35;;;0.80;94.90;;;;;;4950614;28;20091;-50
2023/04/05 02:47:02;;;;;;;10.95;4.78;;;0.80;95.00;;;;;;4950361;28;20051;-52
2023/04/05 02:49:28;;;;;;;7.65;4.57;;;0.80;95.20;;;;;;4950560;28;20138;-50
2023/04/05 02:51:54;;;;;;;9.18;4.68;;;0.80;95.20;;;;;;4944629;28;20039;-54
2023/04/05 02:54:20;;;;;;;7.28;5.07;;;0.80;95.30;;;;;;4950605;28;20047;-46
2023/04/05 02:56:48;;;;;;;8.43;4.97;;;0.80;95.20;;;;;;4951804;28;20529;-47
2023/04/05 02:59:14;;;;;;;7.72;4.65;;;0.70;95.40;;;;;;4951877;28;20051;-51
2023/04/05 03:01:43;;;;;;;10.77;4.93;;;0.70;95.10;;;;;;4940671;28;20070;-41
2023/04/05 03:04:11;;;;;;;8.75;5.10;;;0.70;94.50;;;;;;4950059;28;20055;-42
2023/04/05 03:06:37;;;;;;;9.02;5.30;;;0.60;94.50;;;;;;4951107;28;20098;-45
2023/04/05 03:09:03;;;;;;;7.97;5.10;;;0.60;94.70;;;;;;4949344;28;20074;-42
2023/04/05 03:11:30;;;;;;;9.38;5.32;;;0.60;95.30;;;;;;4933593;29;20418;-50
2023/04/05 03:13:56;;;;;;;9.55;5.45;;;0.60;95.40;;;;;;4951352;28;20058;-50
2023/04/05 03:16:21;;;;;;;12.07;4.78;;;0.60;95.60;;;;;;4950456;28;20629;-50
2023/04/05 03:18:50;;;;;;;10.07;5.20;;;0.60;96.10;;;;;;4951172;28;20091;-43
2023/04/05 03:21:17;;;;;;;9.48;4.22;;;0.60;95.90;;;;;;4950971;28;20043;-47
2023/04/05 03:23:45;;;;;;;10.88;5.72;;;0.50;96.80;;;;;;4934735;29;20152;-51
2023/04/05 03:26:12;;;;;;;7.30;4.88;;;0.50;96.20;;;;;;4915688;28;20082;-45
2023/04/05 03:28:43;;;;;;;8.35;5.38;;;0.50;96.10;;;;;;4951146;28;20043;-42
2023/04/05 03:31:11;;;;;;;9.45;5.47;;;0.40;95.80;;;;;;4951990;28;20062;-44
2023/04/05 03:33:37;;;;;;;5.75;4.88;;;0.40;95.60;;;;;;4951138;28;20046;-48
2023/04/05 03:36:04;;;;;;;7.20;5.07;;;0.30;95.40;;;;;;4950526;28;20054;-43
2023/04/05 03:38:31;;;;;;;11.40;5.80;;;0.20;95.00;;;;;;4933402;29;20058;-46
2023/04/05 03:40:57;;;;;;;10.40;5.70;;;0.20;94.90;;;;;;4951615;29;20058;-56
2023/04/05 03:43:23;;;;;;;9.15;5.30;;;0.10;94.90;;;;;;4930662;29;20082;-47
2023/04/05 03:45:49;;;;;;;7.93;4.75;;;0.00;95.10;;;;;;4950596;28;20490;-52
2023/04/05 03:48:19;;;;;;;9.05;5.10;;;0.10;95.50;;;;;;4948752;28;20055;-52
2023/04/05 03:50:48;;;;;;;6.25;4.65;;;0.00;95.50;;;;;;4950197;28;20058;-49
2023/04/05 03:53:17;;;;;;;14.13;5.28;;;-0.10;95.70;;;;;;4950153;28;20079;-50
2023/04/05 03:55:48;;;;;;;9.73;5.45;;;-0.10;96.00;;;;;;4949699;28;20612;-50
2023/04/05 03:58:14;;;;;;;14.30;5.07;;;-0.20;96.10;;;;;;4950440;28;20510;-60
2023/04/05 04:00:40;;;;;;;11.82;5.35;;;-0.10;96.90;;;;;;4931851;29;20122;-53
2023/04/05 04:03:06;;;;;;;10.57;5.10;;;-0.10;98.90;;;;;;4956212;28;20195;-50
2023/04/05 04:05:37;;;;;;;12.13;5.22;;;0.00;99.70;;;;;;4946574;28;20040;-49
2023/04/05 04:08:06;;;;;;;11.68;5.38;;;0.00;99.20;;;;;;4944377;29;20043;-51
2023/04/05 04:10:34;;;;;;;8.75;5.45;;;0.00;98.90;;;;;;4949008;28;20047;-49
2023/04/05 04:13:00;;;;;;;9.45;5.22;;;0.00;99.30;;;;;;4949580;28;20129;-49
2023/04/05 04:15:25;;;;;;;9.30;4.85;;;0.00;99.40;;;;;;4932982;29;20553;-51
2023/04/05 04:17:51;;;;;;;7.75;5.18;;;0.00;99.70;;;;;;4949190;28;20050;-44
2023/04/05 04:20:17;;;;;;;11.07;5.65;;;0.00;99.80;;;;;;4949542;28;20051;-51
2023/04/05 04:22:44;;;;;;;9.57;5.13;;;0.00;99.70;;;;;;4931855;28;20055;-45
2023/04/05 04:25:11;;;;;;;11.88;6.18;;;0.00;99.40;;;;;;4949476;28;20051;-53
2023/04/05 04:27:39;;;;;;;9.95;5.43;;;0.00;99.40;;;;;;4947954;28;20524;-45
2023/04/05 04:30:14;;;;;;;11.02;6.00;;;0.00;99.30;;;;;;4949834;28;20051;-53
2023/04/05 04:32:52;;;;;;;10.30;5.32;;;0.00;99.50;;;;;;4951498;28;20046;-42
2023/04/05 04:35:26;;;;;;;11.20;5.60;;;0.00;99.90;;;;;;4949212;28;20137;-50
2023/04/05 04:38:00;;;;;;;9.93;5.75;;;0.00;99.60;;;;;;4949968;28;20039;-41
2023/04/05 04:40:37;;;;;;;7.55;5.60;;;0.00;99.10;;;;;;4942739;28;20523;-45
2023/04/05 04:43:05;;;;;;;11.73;6.35;;;-0.10;98.90;;;;;;4931846;28;20063;-49
2023/04/05 04:45:33;;;;;;;11.85;5.72;;;0.00;99.50;;;;;;4931550;29;20549;-41
2023/04/05 04:48:00;;;;;;;9.18;5.75;;;0.00;99.00;;;;;;4931187;28;20055;-52
2023/04/05 04:50:26;;;;;;;9.48;6.20;;;0.00;99.20;;;;;;4931368;29;20188;-45
2023/04/05 04:52:51;;;;;;;9.63;5.50;;;0.00;99.30;;;;;;4948726;29;20059;-44
2023/04/05 04:55:24;;;;;;;11.02;6.13;;;0.00;99.10;;;;;;4950154;28;20054;-45
2023/04/05 04:57:51;;;;;;;11.77;6.22;;;0.00;98.70;;;;;;4915699;29;20152;-49
2023/04/05 05:00:17;;;;;;;7.60;5.40;;;0.00;98.30;;;;;;4949594;28;20459;-44
2023/04/05 05:02:43;;;;;;;10.82;6.35;;;0.00;97.70;;;;;;4952128;28;20405;-57
2023/04/05 05:05:10;;;;;;;13.52;6.15;;;-0.10;97.50;;;;;;4948362;28;20047;-47
2023/04/05 05:07:37;;;;;;;12.10;5.57;;;-0.10;97.80;;;;;;4949249;28;20082;-44
2023/04/05 05:10:04;;;;;;;15.25;6.00;;;-0.10;97.80;;;;;;4948968;28;20065;-49
2023/04/05 05:12:31;;;;;;;13.48;6.25;;;-0.10;97.80;;;;;;4931123;28;20043;-46
2023/04/05 05:14:57;;;;;;;9.82;6.10;;;-0.10;97.90;;;;;;4948873;28;20126;-42
2023/04/05 05:17:24;;;;;;;12.07;6.10;;;-0.10;98.60;;;;;;4950453;28;20114;-48
2023/04/05 05:19:50;;;;;;;10.48;6.63;;;-0.10;98.90;;;;;;4917649;29;20090;-41
2023/04/05 05:22:17;;;;;;;8.38;6.00;;;0.00;99.20;;;;;;4949727;28;20047;-52
2023/04/05 05:24:43;;;;;;;12.90;6.57;;;0.00;98.90;;;;;;4932137;29;20058;-44
2023/04/05 05:27:09;;;;;;;8.77;6.13;;;0.00;98.60;;;;;;4947666;28;20054;-47
2023/04/05 05:29:35;;;;;;;15.13;6.95;;;-0.10;98.30;;;;;;4948668;28;20050;-50
2023/04/05 05:32:01;;;;;;;8.80;5.63;;;0.00;98.20;;;;;;4949653;28;20122;-53
2023/04/05 05:34:27;;;;;;;11.32;5.82;;;0.00;98.20;;;;;;4948908;28;20054;-46
2023/04/05 05:36:54;;;;;;;11.88;6.13;;;0.00;98.20;;;;;;4933920;28;20078;-41
2023/04/05 05:39:20;;;;;;;9.05;5.95;;;0.00;98.30;;;;;;4955946;28;20059;-49
2023/04/05 05:41:46;;;;;;;8.80;5.68;;;0.00;98.50;;;;;;4948038;28;20131;-42
2023/04/05 05:44:12;;;;;;;11.75;7.07;;;0.10;98.80;;;;;;4947735;28;20067;-45
2023/04/05 05:46:38;;;;;;;9.30;6.43;;;0.20;99.20;;;;;;4947488;28;20134;-46
2023/04/05 05:49:04;;;;;;;12.60;6.03;;;0.20;99.40;;;;;;4946146;28;20147;-48
2023/04/05 05:51:31;;;;;;;8.88;6.05;;;0.30;99.30;;;;;;4948462;28;20126;-46
2023/04/05 05:53:57;;;;;;;9.70;6.07;;;0.40;99.50;;;;;;4950703;28;20057;-45
2023/04/05 05:56:22;;;;;;;12.25;6.82;;;0.40;99.20;;;;;;4951613;28;20047;-52
2023/04/05 05:58:48;;;;;;;9.73;6.07;;;0.50;98.80;;;;;;4950403;28;20241;-52
2023/04/05 06:01:14;;;;;;;12.27;6.50;;;0.70;98.60;;;;;;4950798;28;20043;-55
2023/04/05 06:03:40;;;;;;;10.10;6.07;;;0.90;98.50;;;;;;4950584;28;20109;-47
2023/04/05 06:06:07;;;;;;;7.97;5.57;;;1.10;97.70;;;;;;4932706;29;20474;-52
2023/04/05 06:08:33;;;;;;;11.43;7.07;;;1.50;96.80;;;;;;4934524;28;20070;-49
2023/04/05 06:10:59;;;;;;;11.30;6.50;;;1.70;94.40;;;;;;4949257;28;20387;-52
2023/04/05 06:13:25;;;;;;;12.82;6.40;;;1.80;92.60;;;;;;4951050;28;20051;-51
2023/04/05 06:15:51;;;;;;;11.48;6.93;;;1.90;92.00;;;;;;4948916;28;20434;-49
2023/04/05 06:18:16;;;;;;;13.88;6.95;;;2.00;91.80;;;;;;4951205;28;20039;-53
2023/04/05 06:20:43;;;;;;;9.38;5.90;;;2.10;90.80;;;;;;4950187;28;20417;-59
2023/04/05 06:23:10;;;;;;;9.70;5.75;;;2.40;90.00;;;;;;4934220;29;20046;-55
2023/04/05 06:25:36;;;;;;;13.15;5.97;;;2.50;85.80;;;;;;4951026;28;20082;-47
2023/04/05 06:28:06;;;;;;;12.50;6.40;;;2.70;82.60;;;;;;4948866;28;20051;-55
2023/04/05 06:30:33;;;;;;;7.40;4.80;;;2.90;81.30;;;;;;4951723;28;20051;-55
2023/04/05 06:32:59;;;;;;;9.88;5.43;;;3.10;80.10;;;;;;4951376;28;20039;-51
2023/04/05 06:35:25;;;;;;;10.68;5.20;;;3.30;78.00;;;;;;4951549;28;20040;-41
2023/04/05 06:37:52;;;;;;;9.65;4.60;;;3.40;74.80;;;;;;4949427;28;20051;-44
2023/04/05 06:40:18;;;;;;;10.30;5.28;;;3.50;71.30;;;;;;4949790;28;20062;-44
2023/04/05 06:42:43;;;;;;;6.95;4.82;;;3.70;68.10;;;;;;4949640;28;20048;-46
2023/04/05 06:45:10;;;;;;;7.60;4.45;;;4.00;66.80;;;;;;4936004;28;20612;-53
2023/04/05 06:47:38;;;;;;;11.68;5.10;;;4.20;64.80;;;;;;4955259;28;20043;-45
2023/04/05 06:50:06;;;;;;;8.57;4.00;;;4.30;61.40;;;;;;4915653;29;20043;-44
2023/04/05 06:52:33;;;;;;;12.80;4.65;;;4.20;58.70;;;;;;4932848;29;20105;-52
2023/04/05 06:55:00;;;;;;;9.10;3.72;;;4.10;56.80;;;;;;4948772;28;20070;-57
2023/04/05 06:57:26;;;;;;;9.48;4.15;;;4.10;56.10;;;;;;4949036;28;20501;-52
2023/04/05 06:59:53;;;;;;;6.28;4.63;;;4.10;55.60;;;;;;4948818;28;20502;-48
2023/04/05 07:02:20;;;;;;;5.63;4.47;;;4.10;54.40;;;;;;4955177;28;20039;-44
2023/04/05 07:04:46;;;;;;;6.40;4.10;;;4.20;56.00;;;;;;4931445;29;20051;-56
2023/04/05 07:07:12;;;;;;;9.38;4.65;;;4.30;57.00;;;;;;4948525;28;20054;-47
2023/04/05 07:09:40;;;;;;;9.57;4.15;;;4.40;55.30;;;;;;4933373;29;20047;-59
2023/04/05 07:12:06;;;;;;;9.10;4.40;;;4.50;57.30;;;;;;4949501;28;20420;-43
2023/04/05 07:14:34;;;;;;;8.52;4.32;;;4.60;58.00;;;;;;4949519;28;20046;-51
2023/04/05 07:17:01;;;;;;;10.20;4.70;;;4.70;57.90;;;;;;4948572;28;20568;-47
2023/04/05 07:19:27;;;;;;;9.63;4.53;;;4.80;54.40;;;;;;4948596;28;20050;-45
2023/04/05 07:21:54;;;;;;;9.95;4.63;;;4.80;50.00;;;;;;4949407;28;20486;-51
2023/04/05 07:24:20;;;;;;;8.80;4.63;;;4.80;50.50;;;;;;4948789;28;20062;-52
2023/04/05 07:26:45;;;;;;;7.03;4.85;;;4.90;52.90;;;;;;4949653;28;20059;-44
2023/04/05 07:29:11;;;;;;;6.13;4.00;;;5.10;50.30;;;;;;4949081;28;20481;-51
2023/04/05 07:31:38;;;;;;;10.57;4.03;;;5.20;50.80;;;;;;4950247;28;20043;-54
2023/04/05 07:34:04;;;;;;;14.73;4.00;;;5.30;48.30;;;;;;4947725;28;20046;-58
2023/04/05 07:36:30;;;;;;;5.28;3.83;;;5.50;51.30;;;;;;4930528;29;20043;-45
2023/04/05 07:38:56;;;;;;;5.80;3.70;;;5.50;44.40;;;;;;4931309;29;20122;-48
2023/04/05 07:41:24;;;;;;;9.82;3.63;;;5.50;39.50;;;;;;4947165;28;20395;-42
2023/04/05 07:43:50;;;;;;;13.88;3.13;;;5.50;41.90;;;;;;4948652;28;20054;-50
2023/04/05 07:46:16;;;;;;;4.80;3.95;;;5.50;38.70;;;;;;4949001;28;20051;-44
2023/04/05 07:48:41;;;;;;;8.60;3.38;;;5.60;39.60;;;;;;4948740;28;20502;-47
2023/04/05 07:51:09;;;;;;;5.68;3.28;;;5.60;40.40;;;;;;4944475;28;20155;-49
2023/04/05 07:53:36;;;;;;;6.88;3.72;;;5.80;41.20;;;;;;4948905;28;20524;-48
2023/04/05 07:56:06;;;;;;;4.28;3.00;;;5.90;42.50;;;;;;4930118;29;20615;-45
2023/04/05 07:58:33;;;;;;;5.57;3.55;;;6.00;38.30;;;;;;4948268;28;20043;-42
2023/04/05 08:01:03;;;;;;;5.10;3.08;;;6.00;36.40;;;;;;4948210;28;20062;-53
2023/04/05 08:03:30;;;;;;;6.82;3.10;;;6.00;38.10;;;;;;4947350;28;20051;-46
2023/04/05 08:05:56;;;;;;;7.07;4.03;;;6.00;37.20;;;;;;4927879;29;20135;-48
2023/04/05 08:08:23;;;;;;;7.22;4.13;;;6.10;40.10;;;;;;4928825;28;20184;-50
2023/04/05 08:10:49;;;;;;;5.55;3.60;;;6.30;42.40;;;;;;4930426;28;20921;-44
2023/04/05 08:13:15;;;;;;;5.13;4.10;;;6.40;40.30;;;;;;4948054;28;20486;-45
2023/04/05 08:15:41;;;;;;;7.60;3.95;;;6.50;38.00;;;;;;4946511;28;20054;-49
2023/04/05 08:18:07;;;;;;;7.03;4.35;;;6.60;36.60;;;;;;4930812;29;20072;-52
2023/04/05 08:20:37;;;;;;;10.50;4.25;;;6.70;37.00;;;;;;4946579;28;20054;-46
2023/04/05 08:23:04;;;;;;;6.00;3.60;;;6.80;40.20;;;;;;4947096;28;20047;-54
2023/04/05 08:25:30;;;;;;;9.95;3.72;;;7.00;35.10;;;;;;4946686;28;20517;-52
2023/04/05 08:27:55;;;;;;;11.05;3.80;;;7.10;38.70;;;;;;4947975;28;20078;-48
2023/04/05 08:30:22;;;;;;;10.15;3.45;;;7.20;32.40;;;;;;4929485;29;20074;-41
2023/04/05 08:32:48;;;;;;;8.98;3.20;;;7.20;30.40;;;;;;4944610;28;20525;-55
2023/04/05 08:35:15;;;;;;;12.38;3.85;;;7.10;28.30;;;;;;4948078;28;20075;-46
2023/04/05 08:37:40;;;;;;;3.90;3.17;;;7.10;31.60;;;;;;4946531;28;20043;-54
2023/04/05 08:40:07;;;;;;;6.50;3.72;;;7.30;33.80;;;;;;4946890;28;20051;-44
2023/04/05 08:42:41;;;;;;;7.32;3.20;;;7.40;32.20;;;;;;4945562;28;20498;-54
2023/04/05 08:45:10;;;;;;;5.93;3.15;;;7.50;29.50;;;;;;4947474;28;20428;-54
2023/04/05 08:47:37;;;;;;;7.80;3.60;;;7.60;29.00;;;;;;4947192;28;20122;-51
2023/04/05 08:50:04;;;;;;;5.72;3.03;;;7.70;29.60;;;;;;4946718;28;20043;-49
2023/04/05 08:52:37;;;;;;;6.05;2.70;;;7.80;28.30;;;;;;4948286;28;20078;-46
2023/04/05 08:55:04;;;;;;;7.82;3.20;;;7.90;28.90;;;;;;4943234;28;20398;-58
2023/04/05 08:57:31;;;;;;;10.18;3.10;;;8.00;33.00;;;;;;4938885;28;20047;-55
2023/04/05 08:59:59;;;;;;;6.75;2.50;;;8.10;28.50;;;;;;4927782;28;20055;-57
2023/04/05 09:02:25;;;;;;;6.97;3.75;;;8.20;27.30;;;;;;4933705;29;20082;-55
2023/04/05 09:04:52;;;;;;;9.55;3.47;;;8.20;26.30;;;;;;4929791;29;20098;-54
2023/04/05 09:07:26;;;;;;;6.50;3.42;;;8.30;26.60;;;;;;4948366;28;20062;-47
2023/04/05 09:09:54;;;;;;;4.82;3.30;;;8.20;26.20;;;;;;4947799;28;20055;-47
2023/04/05 09:12:21;;;;;;;10.38;3.50;;;8.30;24.50;;;;;;4929373;28;20053;-49
2023/04/05 09:14:48;;;;;;;8.93;3.28;;;8.20;25.10;;;;;;4932187;29;20055;-51
2023/04/05 09:17:18;;;;;;;6.38;3.15;;;8.10;22.60;;;;;;4947396;28;20102;-55
2023/04/05 09:19:44;;;;;;;5.43;3.25;;;8.20;20.40;;;;;;4948837;28;20098;-54
2023/04/05 09:22:10;;;;;;;6.32;3.88;;;8.20;22.20;;;;;;4946611;28;20039;-44
2023/04/05 09:24:42;;;;;;;3.78;2.33;;;8.40;22.30;;;;;;4947655;28;20094;-53
2023/04/05 09:27:19;;;;;;;5.45;3.25;;;8.40;19.20;;;;;;4915929;29;20140;-46
2023/04/05 09:29:47;;;;;;;5.75;3.17;;;8.30;18.60;;;;;;4933745;29;20047;-52
2023/04/05 09:32:14;;;;;;;6.00;3.25;;;8.40;21.30;;;;;;4952911;28;20047;-52
2023/04/05 09:34:41;;;;;;;7.32;3.35;;;8.40;20.50;;;;;;4949909;28;20501;-53
2023/04/05 09:37:20;;;;;;;5.68;3.03;;;8.40;21.50;;;;;;4951373;28;20455;-53
2023/04/05 09:39:48;;;;;;;4.20;3.10;;;8.50;20.20;;;;;;4933220;28;20514;-49
2023/04/05 09:42:16;;;;;;;5.05;2.75;;;8.70;18.20;;;;;;4949976;28;20077;-48
2023/04/05 09:44:55;;;;;;;4.53;2.30;;;8.70;17.50;;;;;;4951710;28;20496;-49
2023/04/05 09:47:24;;;;;;;6.00;2.78;;;8.80;11.50;;;;;;4949565;28;20043;-53
2023/04/05 09:49:50;;;;;;;4.47;2.28;;;8.80;11.60;;;;;;4952436;28;20478;-51
2023/04/05 09:52:34;;;;;;;3.08;2.78;;;8.80;10.50;;;;;;4949778;28;20051;-55
2023/04/05 09:55:02;;;;;;;7.70;2.30;;;8.90;8.60;;;;;;4950525;28;20054;-59
2023/04/05 09:57:34;;;;;;;3.38;3.08;;;9.00;14.20;;;;;;4952728;28;20130;-49
2023/04/05 09:59:59;;;;;;;5.13;2.83;;;9.20;13.70;;;;;;4949879;28;20051;-62
2023/04/05 10:02:38;;;;;;;3.95;2.30;;;9.10;12.50;;;;;;4957174;28;20045;-52
2023/04/05 10:05:14;;;;;;;3.88;2.53;;;9.20;7.40;;;;;;4938342;28;20398;-52
2023/04/05 10:07:44;;;;;;;8.68;3.05;;;9.20;12.10;;;;;;4933535;29;20066;-55
2023/04/05 10:10:11;;;;;;;3.38;2.80;;;9.20;8.10;;;;;;4949706;28;20047;-54
2023/04/05 10:12:38;;;;;;;7.25;2.20;;;9.30;9.80;;;;;;4950064;28;20178;-50
2023/04/05 10:15:05;;;;;;;3.92;2.67;;;9.40;14.50;;;;;;4950536;28;20130;-58
2023/04/05 10:17:50;;;;;;;5.18;3.15;;;9.50;6.20;;;;;;4949435;28;20525;-42
2023/04/05 10:20:23;;;;;;;8.27;2.97;;;9.40;3.60;;;;;;4951189;28;20051;-54
2023/04/05 10:23:21;;;;;;;9.75;3.38;;;9.40;4.40;;;;;;4949311;28;20042;-49
2023/04/05 10:26:01;;;;;;;4.60;3.55;;;9.40;1.00;;;;;;4929855;28;20136;-55
2023/04/05 10:28:36;;;;;;;5.65;3.17;;;9.40;2.70;;;;;;4928394;29;20183;-49
2023/04/05 10:31:14;;;;;;;5.25;3.35;;;9.50;1.00;;;;;;4931738;28;20113;-51
2023/04/05 10:33:49;;;;;;;3.28;2.78;;;9.50;3.20;;;;;;4950155;28;20061;-48
2023/04/05 10:36:15;;;;;;;3.65;2.17;;;9.50;1.00;;;;;;4949559;28;20130;-54
2023/04/05 10:39:03;;;;;;;6.63;2.63;;;9.60;1.00;;;;;;4910030;28;20154;-57
2023/04/05 10:41:35;;;;;;;4.63;2.72;;;9.60;1.00;;;;;;4942446;28;20129;-60
2023/04/05 10:44:04;;;;;;;3.95;3.05;;;9.50;1.00;;;;;;4949637;28;20055;-59
2023/04/05 10:46:30;;;;;;;3.15;2.40;;;9.60;1.00;;;;;;4949270;28;20038;-51
2023/04/05 10:49:20;;;;;;;5.13;2.50;;;9.70;1.20;;;;;;4950351;28;20513;-53
2023/04/05 10:51:47;;;;;;;3.85;2.85;;;9.80;1.00;;;;;;4930472;29;20059;-52
2023/04/05 10:54:15;;;;;;;7.45;2.70;;;9.80;1.00;;;;;;4948759;28;20043;-55
2023/04/05 10:56:42;;;;;;;4.15;2.50;;;9.70;1.00;;;;;;4947772;28;20073;-47
2023/04/05 10:59:10;;;;;;;4.68;3.00;;;9.70;1.00;;;;;;4950605;28;20059;-47
2023/04/05 11:01:37;;;;;;;4.88;2.80;;;9.90;1.00;;;;;;4949133;28;20051;-56
2023/04/05 11:04:14;;;;;;;3.67;2.90;;;9.90;1.00;;;;;;4933604;29;20055;-46
2023/04/05 11:06:41;;;;;;;3.22;2.38;;;9.80;1.00;;;;;;4946002;28;20039;-47
2023/04/05 11:09:19;;;;;;;4.28;2.80;;;9.90;1.00;;;;;;4932828;28;20066;-45
2023/04/05 11:11:47;;;;;;;5.78;2.50;;;9.90;1.00;;;;;;4951155;28;20083;-58
2023/04/05 11:14:34;;;;;;;3.67;3.33;;;9.90;1.00;;;;;;4949266;28;20046;-55
2023/04/05 11:17:00;;;;;;;4.53;2.70;;;9.90;1.00;;;;;;4940341;28;20510;-61
2023/04/05 11:19:52;;;;;;;5.25;2.63;;;10.00;1.00;;;;;;4950101;28;20047;-55
2023/04/05 11:22:27;;;;;;;4.93;2.60;;;10.10;1.00;;;;;;4936093;28;20528;-56
2023/04/05 11:24:56;;;;;;;6.30;3.05;;;10.00;1.00;;;;;;4950566;28;20118;-49
2023/04/05 11:27:36;;;;;;;2.30;1.90;;;9.90;1.00;;;;;;4924744;29;20043;-54
2023/04/05 11:30:04;;;;;;;8.18;2.92;;;9.90;1.00;;;;;;4944814;28;20051;-62
2023/04/05 11:32:45;;;;;;;7.07;3.00;;;10.00;1.00;;;;;;4949495;28;20292;-54
2023/04/05 11:35:27;;;;;;;4.57;2.72;;;9.90;1.00;;;;;;4939808;28;20046;-63
2023/04/05 11:38:07;;;;;;;3.40;2.55;;;9.90;1.00;;;;;;4947902;28;20513;-46
2023/04/05 11:40:36;;;;;;;6.55;2.60;;;10.10;1.00;;;;;;4931689;29;20183;-63
2023/04/05 11:43:02;;;;;;;5.38;2.92;;;10.10;1.00;;;;;;4952322;23;20055;-62
2023/04/05 11:45:33;;;;;;;6.57;2.60;;;10.20;1.00;;;;;;4966610;28;20486;-48
2023/04/05 11:48:12;;;;;;;3.65;2.70;;;10.20;1.00;;;;;;4967782;28;20635;-44
2023/04/05 11:50:40;;;;;;;3.95;2.53;;;10.10;1.00;;;;;;4955094;28;20038;-53
2023/04/05 11:53:14;;;;;;;3.25;2.72;;;10.10;1.00;;;;;;4969638;28;20744;-58
2023/04/05 11:55:45;;;;;;;3.72;3.28;;;10.10;1.00;;;;;;4949393;28;20054;-59
2023/04/05 11:58:16;;;;;;;5.47;3.00;;;10.30;1.00;;;;;;4951361;28;20421;-55
2023/04/05 12:00:58;;;;;;;5.28;3.00;;;10.30;1.00;;;;;;4969051;28;20476;-44
2023/04/05 12:03:23;;;;;;;7.13;2.95;;;10.30;1.00;;;;;;4967705;28;20055;-61
2023/04/05 12:05:53;;;;;;;4.68;3.00;;;10.20;1.00;;;;;;4954901;28;20406;-51
2023/04/05 12:08:20;;;;;;;7.18;2.80;;;10.10;1.00;;;;;;4966847;28;20069;-53
2023/04/05 12:11:01;;;;;;;5.15;3.00;;;10.00;1.00;;;;;;4965234;28;20144;-58
2023/04/05 12:13:31;;;;;;;6.10;2.92;;;10.00;1.00;;;;;;4967795;28;20498;-45
2023/04/05 12:16:02;;;;;;;4.80;3.10;;;10.10;1.00;;;;;;4951530;28;20082;-50
2023/04/05 12:18:31;;;;;;;4.78;3.15;;;10.10;1.00;;;;;;4968552;28;20121;-55
2023/04/05 12:20:57;;;;;;;9.05;3.10;;;10.20;1.00;;;;;;4949772;28;20054;-55
2023/04/05 12:23:24;;;;;;;5.65;3.10;;;10.30;1.00;;;;;;4968777;28;20076;-58
2023/04/05 12:25:53;;;;;;;9.82;2.97;;;10.30;1.00;;;;;;4967479;28;20055;-50
2023/04/05 12:28:19;;;;;;;4.88;3.22;;;10.50;1.00;;;;;;4968766;28;20508;-45
2023/04/05 12:30:53;;;;;;;4.60;2.70;;;10.40;1.00;;;;;;4966675;28;20133;-59
2023/04/05 12:33:34;;;;;;;6.50;3.17;;;10.40;1.00;;;;;;4950421;28;20050;-58
2023/04/05 12:36:04;;;;;;;5.20;2.95;;;10.50;1.00;;;;;;4967657;28;20061;-49
2023/04/05 12:38:30;;;;;;;6.45;3.10;;;10.50;1.00;;;;;;4965004;28;20049;-56
2023/04/05 12:41:00;;;;;;;5.43;3.13;;;10.40;1.00;;;;;;4967618;28;20074;-62
2023/04/05 12:43:40;;;;;;;3.10;2.67;;;10.20;1.00;;;;;;4965487;28;20086;-56
2023/04/05 12:46:19;;;;;;;6.45;3.03;;;10.20;1.00;;;;;;4950229;28;20405;-53
2023/04/05 12:48:50;;;;;;;3.08;2.70;;;10.20;1.00;;;;;;4967665;28;20556;-46
2023/04/05 12:51:16;;;;;;;4.18;2.25;;;10.30;1.00;;;;;;4967277;28;20090;-48
2023/04/05 12:53:47;;;;;;;3.15;2.60;;;10.30;1.00;;;;;;4950220;28;20717;-52
2023/04/05 12:56:14;;;;;;;8.02;2.95;;;10.40;1.00;;;;;;4949982;28;20051;-50
2023/04/05 12:58:40;;;;;;;4.78;2.83;;;10.50;1.00;;;;;;4962785;28;20086;-55
2023/04/05 13:01:07;;;;;;;3.65;3.08;;;10.40;1.00;;;;;;4947325;28;20281;-53
2023/04/05 13:03:32;;;;;;;6.05;2.67;;;10.40;1.00;;;;;;4966845;28;20543;-62
2023/04/05 13:05:58;;;;;;;5.63;3.13;;;10.60;1.00;;;;;;4968600;28;20075;-56